createdAt,value
2019-05-18T00:00:54.234Z,11.88
2019-05-18T00:03:26.707Z,11.88
2019-05-18T00:05:57.553Z,10.98
2019-05-18T00:08:28.078Z,11.33
2019-05-18T00:10:58.774Z,11.68
2019-05-18T00:13:29.410Z,10.82
2019-05-18T00:16:00.145Z,11.95
2019-05-18T00:18:30.693Z,11.70
2019-05-18T00:21:01.436Z,12.15
2019-05-18T00:23:32.070Z,11.97
2019-05-18T00:26:02.856Z,12.75
2019-05-18T00:28:35.179Z,12.50
2019-05-18T00:31:06.041Z,12.55
2019-05-18T00:33:37.354Z,12.68
2019-05-18T00:36:08.229Z,12.93
2019-05-18T00:38:38.896Z,12.70
2019-05-18T00:41:09.863Z,12.03
2019-05-18T00:43:40.508Z,12.93
2019-05-18T00:46:11.316Z,13.30
2019-05-18T00:48:42.024Z,14.15
2019-05-18T00:51:12.803Z,14.23
2019-05-18T00:53:43.491Z,13.95
2019-05-18T00:56:14.256Z,14.33
2019-05-18T00:58:44.928Z,14.13
2019-05-18T01:01:15.656Z,13.95
2019-05-18T01:03:46.315Z,14.45
2019-05-18T01:06:16.999Z,12.98
2019-05-18T01:08:47.662Z,13.80
2019-05-18T01:11:18.514Z,12.50
2019-05-18T01:13:49.282Z,13.50
2019-05-18T01:16:20.241Z,12.80
2019-05-18T01:18:51.135Z,13.20
2019-05-18T01:21:21.984Z,12.30
2019-05-18T01:23:52.667Z,12.63
2019-05-18T01:26:23.476Z,12.53
2019-05-18T01:28:57.486Z,12.68
2019-05-18T01:31:28.300Z,12.13
2019-05-18T01:33:59.118Z,12.98
2019-05-18T01:36:30.204Z,13.48
2019-05-18T01:39:03.298Z,13.43
2019-05-18T01:41:34.539Z,13.50
2019-05-18T01:44:05.448Z,14.03
2019-05-18T01:46:36.221Z,14.53
2019-05-18T01:49:07.969Z,13.88
2019-05-18T01:51:38.750Z,13.80
2019-05-18T01:54:08.851Z,13.75
2019-05-18T01:56:40.660Z,14.55
2019-05-18T01:59:12.455Z,14.40
2019-05-18T02:01:43.351Z,14.10
2019-05-18T02:04:14.426Z,15.18
2019-05-18T02:06:45.328Z,14.65
2019-05-18T02:09:17.149Z,13.62
2019-05-18T02:11:47.863Z,13.53
2019-05-18T02:14:17.822Z,13.53
2019-05-18T02:16:48.485Z,14.15
2019-05-18T02:19:20.179Z,13.93
2019-05-18T02:21:50.854Z,14.28
2019-05-18T02:24:20.802Z,13.60
2019-05-18T02:26:51.546Z,14.38
2019-05-18T02:29:23.130Z,14.25
2019-05-18T02:31:53.789Z,14.53
2019-05-18T02:34:24.458Z,14.85
2019-05-18T02:36:55.166Z,14.20
2019-05-18T02:39:27.186Z,14.55
2019-05-18T02:41:57.299Z,14.65
2019-05-18T02:44:27.846Z,15.55
2019-05-18T02:46:57.913Z,14.43
2019-05-18T02:49:29.625Z,15.38
2019-05-18T02:52:00.281Z,14.75
2019-05-18T02:54:30.820Z,15.50
2019-05-18T02:57:01.460Z,14.93
2019-05-18T02:59:33.158Z,14.73
2019-05-18T03:02:04.010Z,14.47
2019-05-18T03:04:35.678Z,15.05
2019-05-18T03:07:06.424Z,14.50
2019-05-18T03:09:38.139Z,14.75
2019-05-18T03:12:08.832Z,15.75
2019-05-18T03:14:39.392Z,15.03
2019-05-18T03:17:10.041Z,14.75
2019-05-18T03:19:41.796Z,14.95
2019-05-18T03:22:12.427Z,14.75
2019-05-18T03:24:42.993Z,15.60
2019-05-18T03:27:13.036Z,14.45
2019-05-18T03:29:44.630Z,14.73
2019-05-18T03:32:15.403Z,14.25
2019-05-18T03:34:46.055Z,13.72
2019-05-18T03:37:16.889Z,13.75
2019-05-18T03:39:48.564Z,13.30
2019-05-18T03:42:19.381Z,13.43
2019-05-18T03:44:50.000Z,13.22
2019-05-18T03:47:20.666Z,14.13
2019-05-18T03:49:51.838Z,14.35
2019-05-18T03:52:22.597Z,13.45
2019-05-18T03:54:53.142Z,13.03
2019-05-18T03:57:23.884Z,12.65
2019-05-18T03:59:55.463Z,12.68
2019-05-18T04:02:25.545Z,13.00
2019-05-18T04:04:56.602Z,13.38
2019-05-18T04:07:27.354Z,13.00
2019-05-18T04:09:58.961Z,12.15
2019-05-18T04:12:29.745Z,11.80
2019-05-18T04:15:00.279Z,10.93
2019-05-18T04:17:31.033Z,11.00
2019-05-18T04:20:03.042Z,11.12
2019-05-18T04:22:33.799Z,9.93
2019-05-18T04:25:05.090Z,9.78
2019-05-18T04:27:35.727Z,9.28
2019-05-18T04:30:07.492Z,9.65
2019-05-18T04:32:37.659Z,9.10
2019-05-18T04:35:09.759Z,9.18
2019-05-18T04:37:40.373Z,9.18
2019-05-18T04:40:12.194Z,9.23
2019-05-18T04:42:42.289Z,9.45
2019-05-18T04:45:13.306Z,9.03
2019-05-18T04:47:48.254Z,9.03
2019-05-18T04:50:16.667Z,9.23
2019-05-18T04:52:47.393Z,8.95
2019-05-18T04:55:17.335Z,9.00
2019-05-18T04:57:47.965Z,9.35
2019-05-18T05:00:19.691Z,9.83
2019-05-18T05:02:50.338Z,9.20
2019-05-18T05:05:21.780Z,10.28
2019-05-18T05:07:51.853Z,9.25
2019-05-18T05:10:23.568Z,9.70
2019-05-18T05:12:54.991Z,9.43
2019-05-18T05:15:25.525Z,9.68
2019-05-18T05:17:56.157Z,9.38
2019-05-18T05:20:27.223Z,9.23
2019-05-18T05:22:57.872Z,9.98
2019-05-18T05:25:28.393Z,9.68
2019-05-18T05:27:59.045Z,9.83
2019-05-18T05:30:29.086Z,10.08
2019-05-18T05:32:59.727Z,10.10
2019-05-18T05:35:31.428Z,10.23
2019-05-18T05:38:02.154Z,9.88
2019-05-18T05:40:32.205Z,10.13
2019-05-18T05:43:03.061Z,10.58
2019-05-18T05:45:33.651Z,10.32
2019-05-18T05:48:04.389Z,10.58
2019-05-18T05:50:36.562Z,9.85
2019-05-18T05:53:06.934Z,10.33
2019-05-18T05:55:37.558Z,10.68
2019-05-18T05:58:08.203Z,9.90
2019-05-18T06:00:39.778Z,12.18
2019-05-18T06:03:10.450Z,10.58
2019-05-18T06:05:41.410Z,10.55
2019-05-18T06:08:12.051Z,10.60
2019-05-18T06:10:42.069Z,10.63
2019-05-18T06:13:12.894Z,10.38
2019-05-18T06:15:43.517Z,10.35
2019-05-18T06:18:14.162Z,9.93
2019-05-18T06:20:51.375Z,10.60
2019-05-18T06:23:17.003Z,10.23
2019-05-18T06:25:47.555Z,10.55
2019-05-18T06:28:17.710Z,10.58
2019-05-18T06:30:48.658Z,10.25
2019-05-18T06:33:19.296Z,9.98
2019-05-18T06:35:49.928Z,10.23
2019-05-18T06:38:20.657Z,9.83
2019-05-18T06:40:51.287Z,9.73
2019-05-18T06:43:21.995Z,10.05
2019-05-18T06:45:52.532Z,9.53
2019-05-18T06:48:23.253Z,9.78
2019-05-18T06:51:06.376Z,9.50
2019-05-18T06:53:26.309Z,10.68
2019-05-18T06:55:57.250Z,10.40
2019-05-18T06:58:28.495Z,9.40
2019-05-18T07:00:59.012Z,9.68
2019-05-18T07:03:29.685Z,9.93
2019-05-18T07:06:01.200Z,9.48
2019-05-18T07:08:31.294Z,10.10
2019-05-18T07:11:01.846Z,10.08
2019-05-18T07:13:32.129Z,10.13
2019-05-18T07:16:02.742Z,9.90
2019-05-18T07:18:33.506Z,10.25
2019-05-18T07:21:05.026Z,10.10
2019-05-18T07:23:35.674Z,10.18
2019-05-18T07:26:06.293Z,10.10
2019-05-18T07:28:37.936Z,9.83
2019-05-18T07:31:08.569Z,10.70
2019-05-18T07:33:39.209Z,10.82
2019-05-18T07:36:09.749Z,10.80
2019-05-18T07:38:40.613Z,10.50
2019-05-18T07:41:11.242Z,9.75
2019-05-18T07:43:41.955Z,9.70
2019-05-18T07:46:11.895Z,9.90
2019-05-18T07:48:42.557Z,10.45
2019-05-18T07:51:13.100Z,10.50
2019-05-18T07:53:43.722Z,9.93
2019-05-18T07:56:14.245Z,9.68
2019-05-18T07:58:44.892Z,10.20
2019-05-18T08:01:15.219Z,11.38
2019-05-18T08:03:45.847Z,10.35
2019-05-18T08:06:17.315Z,10.48
2019-05-18T08:08:48.055Z,10.63
2019-05-18T08:11:19.600Z,10.20
2019-05-18T08:13:50.312Z,9.75
2019-05-18T08:16:20.922Z,10.75
2019-05-18T08:18:51.658Z,9.05
2019-05-18T08:21:22.204Z,9.50
2019-05-18T08:23:52.827Z,9.68
2019-05-18T08:26:23.363Z,10.18
2019-05-18T08:28:55.008Z,10.15
2019-05-18T08:31:25.505Z,9.45
2019-05-18T08:33:56.247Z,9.58
2019-05-18T08:36:26.768Z,9.85
2019-05-18T08:38:57.429Z,9.53
2019-05-18T08:41:28.059Z,9.15
2019-05-18T08:43:58.767Z,9.40
2019-05-18T08:46:29.409Z,9.10
2019-05-18T08:49:01.182Z,8.85
2019-05-18T08:51:31.982Z,8.50
2019-05-18T08:54:02.653Z,10.32
2019-05-18T08:56:33.421Z,9.45
2019-05-18T08:59:05.315Z,8.80
2019-05-18T09:01:36.054Z,8.80
2019-05-18T09:04:06.792Z,9.05
2019-05-18T09:06:38.466Z,8.68
2019-05-18T09:09:10.317Z,9.10
2019-05-18T09:11:40.861Z,9.78
2019-05-18T09:14:11.547Z,9.83
2019-05-18T09:16:42.077Z,8.90
2019-05-18T09:19:13.768Z,9.95
2019-05-18T09:21:44.320Z,10.88
2019-05-18T09:24:14.952Z,9.75
2019-05-18T09:26:45.476Z,9.78
2019-05-18T09:29:16.109Z,9.78
2019-05-18T09:31:46.739Z,9.43
2019-05-18T09:34:17.538Z,14.50
2019-05-18T09:36:48.235Z,14.63
2019-05-18T09:39:19.939Z,12.63
2019-05-18T09:41:50.492Z,10.32
2019-05-18T09:44:21.209Z,9.25
2019-05-18T09:46:51.763Z,9.35
2019-05-18T09:49:23.715Z,8.45
2019-05-18T09:51:54.334Z,7.10
2019-05-18T09:54:25.186Z,7.17
2019-05-18T09:56:55.918Z,7.87
2019-05-18T09:59:27.557Z,7.78
2019-05-18T10:01:58.162Z,8.38
2019-05-18T10:04:28.880Z,9.10
2019-05-18T10:07:00.342Z,9.55
2019-05-18T10:09:38.926Z,9.83
2019-05-18T10:12:03.335Z,9.55
2019-05-18T10:14:34.237Z,9.45
2019-05-18T10:17:04.850Z,9.00
2019-05-18T10:19:35.621Z,8.80
2019-05-18T10:22:06.261Z,8.60
2019-05-18T10:24:37.034Z,21.42
2019-05-18T10:27:07.772Z,17.15
2019-05-18T10:29:38.451Z,11.28
2019-05-18T10:32:09.040Z,8.80
2019-05-18T10:34:39.785Z,8.68
2019-05-18T10:37:10.314Z,8.50
2019-05-18T10:39:41.048Z,9.05
2019-05-18T10:42:11.608Z,9.63
2019-05-18T10:44:42.480Z,8.90
2019-05-18T10:47:13.013Z,9.50
2019-05-18T10:49:47.722Z,9.60
2019-05-18T10:52:18.365Z,9.85
2019-05-18T10:54:49.053Z,10.60
2019-05-18T10:57:19.609Z,10.32
2019-05-18T10:59:50.416Z,10.48
2019-05-18T11:02:21.026Z,10.08
2019-05-18T11:04:51.791Z,10.90
2019-05-18T11:07:23.346Z,10.30
2019-05-18T11:09:56.918Z,8.88
2019-05-18T11:12:27.470Z,8.65
2019-05-18T11:14:58.295Z,8.95
2019-05-18T11:17:28.826Z,9.70
2019-05-18T11:20:00.009Z,9.05
2019-05-18T11:22:30.569Z,10.23
2019-05-18T11:25:01.225Z,10.13
2019-05-18T11:27:31.764Z,10.90
2019-05-18T11:30:02.799Z,11.60
2019-05-18T11:32:33.794Z,10.63
2019-05-18T11:35:07.351Z,10.65
2019-05-18T11:37:38.188Z,9.73
2019-05-18T11:40:10.008Z,10.45
2019-05-18T11:42:40.740Z,9.68
2019-05-18T11:45:13.268Z,9.45
2019-05-18T11:47:43.901Z,9.38
2019-05-18T11:50:16.222Z,9.30
2019-05-18T11:52:46.743Z,9.73
2019-05-18T11:55:17.884Z,9.18
2019-05-18T11:57:48.533Z,8.65
2019-05-18T12:00:19.910Z,10.55
2019-05-18T12:02:50.546Z,10.18
2019-05-18T12:05:21.272Z,9.65
2019-05-18T12:07:51.819Z,10.45
2019-05-18T12:10:23.758Z,10.78
2019-05-18T12:12:54.316Z,9.55
2019-05-18T12:15:25.114Z,9.03
2019-05-18T12:17:55.649Z,10.20
2019-05-18T12:20:26.406Z,9.60
2019-05-18T12:22:57.038Z,9.70
2019-05-18T12:25:27.664Z,9.53
2019-05-18T12:27:58.190Z,8.05
2019-05-18T12:30:30.946Z,7.58
2019-05-18T12:33:01.498Z,8.28
2019-05-18T12:35:32.263Z,7.95
2019-05-18T12:38:02.918Z,7.37
2019-05-18T12:40:33.693Z,7.62
2019-05-18T12:43:03.658Z,8.13
2019-05-18T12:45:34.410Z,8.05
2019-05-18T12:48:05.034Z,7.67
2019-05-18T12:50:35.724Z,8.13
2019-05-18T12:53:07.760Z,9.05
2019-05-18T12:55:38.497Z,9.00
2019-05-18T12:58:09.056Z,8.68
2019-05-18T13:00:39.812Z,8.53
2019-05-18T13:03:09.869Z,8.38
2019-05-18T13:05:40.706Z,8.83
2019-05-18T13:08:12.145Z,8.75
2019-05-18T13:10:42.944Z,9.23
2019-05-18T13:13:13.477Z,9.35
2019-05-18T13:15:44.277Z,9.20
2019-05-18T13:18:14.774Z,9.33
2019-05-18T13:20:45.672Z,9.00
2019-05-18T13:23:17.218Z,8.55
2019-05-18T13:25:48.140Z,9.80
2019-05-18T13:28:18.207Z,8.90
2019-05-18T13:30:49.084Z,7.65
2019-05-18T13:33:19.809Z,8.23
2019-05-18T13:35:50.588Z,7.62
2019-05-18T13:38:21.325Z,8.70
2019-05-18T13:40:52.220Z,8.00
2019-05-18T13:43:22.765Z,8.73
2019-05-18T13:45:53.565Z,8.98
2019-05-18T13:48:23.516Z,7.85
2019-05-18T13:50:54.229Z,7.65
2019-05-18T13:53:24.766Z,5.72
2019-05-18T13:55:55.416Z,4.97
2019-05-18T13:58:25.353Z,4.62
2019-05-18T14:00:55.536Z,4.75
2019-05-18T14:03:28.708Z,4.30
2019-05-18T14:06:00.387Z,5.03
2019-05-18T14:08:31.863Z,5.08
2019-05-18T14:11:02.593Z,5.50
2019-05-18T14:13:32.555Z,5.90
2019-05-18T14:16:03.363Z,5.30
2019-05-18T14:18:33.994Z,6.35
2019-05-18T14:21:04.702Z,6.70
2019-05-18T14:23:35.438Z,6.47
2019-05-18T14:26:06.201Z,6.83
2019-05-18T14:28:36.755Z,6.97
2019-05-18T14:31:07.598Z,7.10
2019-05-18T14:33:37.729Z,7.33
2019-05-18T14:36:08.379Z,7.67
2019-05-18T14:38:39.010Z,7.25
2019-05-18T14:41:09.694Z,7.45
2019-05-18T14:43:40.249Z,7.60
2019-05-18T14:46:10.387Z,7.12
2019-05-18T14:48:41.130Z,7.87
2019-05-18T14:51:11.888Z,7.90
2019-05-18T14:53:42.449Z,8.20
2019-05-18T14:56:13.115Z,7.75
2019-05-18T14:58:43.639Z,7.72
2019-05-18T15:01:14.395Z,8.30
2019-05-18T15:03:44.934Z,7.90
2019-05-18T15:06:15.685Z,8.15
2019-05-18T15:08:47.227Z,8.13
2019-05-18T15:11:17.986Z,8.95
2019-05-18T15:13:48.623Z,7.90
2019-05-18T15:16:19.454Z,8.13
2019-05-18T15:18:50.176Z,8.70
2019-05-18T15:21:20.822Z,9.43
2019-05-18T15:23:51.371Z,8.20
2019-05-18T15:26:22.118Z,9.18
2019-05-18T15:28:52.754Z,8.73
2019-05-18T15:31:23.951Z,8.68
2019-05-18T15:33:54.652Z,8.13
2019-05-18T15:36:25.389Z,8.65
2019-05-18T15:38:57.109Z,8.88
2019-05-18T15:41:27.766Z,8.63
2019-05-18T15:43:58.279Z,8.98
2019-05-18T15:46:29.012Z,8.25
2019-05-18T15:49:00.723Z,7.85
2019-05-18T15:51:31.461Z,6.25
2019-05-18T15:54:02.107Z,7.28
2019-05-18T15:56:32.961Z,6.60
2019-05-18T15:59:04.695Z,6.42
2019-05-18T16:01:35.683Z,5.83
2019-05-18T16:04:06.757Z,6.05
2019-05-18T16:06:37.582Z,5.85
2019-05-18T16:09:10.119Z,6.10
2019-05-18T16:11:40.860Z,6.75
2019-05-18T16:14:11.510Z,7.08
2019-05-18T16:16:42.733Z,6.97
2019-05-18T16:19:14.463Z,7.17
2019-05-18T16:21:44.528Z,8.48
2019-05-18T16:24:15.041Z,6.05
2019-05-18T16:26:45.711Z,6.75
2019-05-18T16:29:16.272Z,6.87
2019-05-18T16:31:46.928Z,6.83
2019-05-18T16:34:17.467Z,7.33
2019-05-18T16:36:48.222Z,8.30
2019-05-18T16:39:20.111Z,7.03
2019-05-18T16:41:50.774Z,7.17
2019-05-18T16:44:21.340Z,6.70
2019-05-18T16:46:52.054Z,7.25
2019-05-18T16:49:22.650Z,6.67
2019-05-18T16:51:53.705Z,7.58
2019-05-18T16:54:24.235Z,6.53
2019-05-18T16:56:54.983Z,6.92
2019-05-18T16:59:25.674Z,7.30
2019-05-18T17:01:55.763Z,7.40
2019-05-18T17:04:26.285Z,7.45
2019-05-18T17:06:57.029Z,7.25
2019-05-18T17:09:28.594Z,6.97
2019-05-18T17:11:59.290Z,7.80
2019-05-18T17:14:29.817Z,7.05
2019-05-18T17:17:00.531Z,7.42
2019-05-18T17:19:32.393Z,6.83
2019-05-18T17:22:03.147Z,7.15
2019-05-18T17:24:33.789Z,7.40
2019-05-18T17:27:04.845Z,7.80
2019-05-18T17:29:36.515Z,6.70
2019-05-18T17:32:07.274Z,7.45
2019-05-18T17:34:37.817Z,6.95
2019-05-18T17:37:08.464Z,6.53
2019-05-18T17:39:40.094Z,7.20
2019-05-18T17:42:11.818Z,8.10
2019-05-18T17:44:43.357Z,7.28
2019-05-18T17:47:14.062Z,7.90
2019-05-18T17:49:44.618Z,8.40
2019-05-18T17:52:15.358Z,8.68
2019-05-18T17:54:46.371Z,8.78
2019-05-18T17:57:17.025Z,10.00
2019-05-18T17:59:49.513Z,10.85
2019-05-18T18:02:20.016Z,10.78
2019-05-18T18:04:53.956Z,11.15
2019-05-18T18:07:22.841Z,10.98
2019-05-18T18:09:55.168Z,10.43
2019-05-18T18:12:26.004Z,10.50
2019-05-18T18:14:56.741Z,10.75
2019-05-18T18:17:27.569Z,11.03
2019-05-18T18:19:58.343Z,11.35
2019-05-18T18:22:29.112Z,11.38
2019-05-18T18:24:59.758Z,10.78
2019-05-18T18:27:30.619Z,11.25
2019-05-18T18:30:02.115Z,11.48
2019-05-18T18:32:34.004Z,11.38
2019-05-18T18:35:05.855Z,11.28
2019-05-18T18:37:36.704Z,10.28
2019-05-18T18:40:07.973Z,10.10
2019-05-18T18:42:38.816Z,11.00
2019-05-18T18:45:09.864Z,9.90
2019-05-18T18:47:40.674Z,9.75
2019-05-18T18:50:11.445Z,11.43
2019-05-18T18:52:42.323Z,10.05
2019-05-18T18:55:13.480Z,11.20
2019-05-18T18:57:44.197Z,12.05
2019-05-18T19:00:16.633Z,12.18
2019-05-18T19:02:47.359Z,12.07
2019-05-18T19:05:18.020Z,12.33
2019-05-18T19:07:48.772Z,12.50
2019-05-18T19:10:20.790Z,11.18
2019-05-18T19:12:51.520Z,12.25
2019-05-18T19:15:22.153Z,10.90
2019-05-18T19:17:52.876Z,11.53
2019-05-18T19:20:24.515Z,11.85
2019-05-18T19:22:55.159Z,11.00
2019-05-18T19:25:25.789Z,11.05
2019-05-18T19:27:56.558Z,10.80
2019-05-18T19:30:27.811Z,11.90
2019-05-18T19:32:58.464Z,11.43
2019-05-18T19:35:29.016Z,11.18
2019-05-18T19:37:59.678Z,10.78
2019-05-18T19:40:31.588Z,11.40
2019-05-18T19:43:02.375Z,11.28
2019-05-18T19:45:33.288Z,10.80
2019-05-18T19:48:04.082Z,10.15
2019-05-18T19:50:34.690Z,10.50
2019-05-18T19:53:04.967Z,23.75
2019-05-18T19:55:35.528Z,37.38
2019-05-18T19:58:08.885Z,18.45
2019-05-18T20:00:40.374Z,13.85
2019-05-18T20:03:11.220Z,25.60
2019-05-18T20:05:41.970Z,43.30
2019-05-18T20:08:12.651Z,25.30
2019-05-18T20:10:45.276Z,15.18
2019-05-18T20:13:16.078Z,13.75
2019-05-18T20:15:46.737Z,12.40
2019-05-18T20:18:17.570Z,11.53
2019-05-18T20:20:49.233Z,11.85
2019-05-18T20:23:19.976Z,12.80
2019-05-18T20:25:50.538Z,12.78
2019-05-18T20:28:23.967Z,14.03
2019-05-18T20:30:54.627Z,12.80
2019-05-18T20:33:25.404Z,14.30
2019-05-18T20:35:56.059Z,13.58
2019-05-18T20:38:26.838Z,14.23
2019-05-18T20:40:57.357Z,28.75
2019-05-18T20:43:28.147Z,22.50
2019-05-18T20:45:58.776Z,19.95
2019-05-18T20:48:29.600Z,21.77
2019-05-18T20:51:00.169Z,21.68
2019-05-18T20:53:30.925Z,36.65
2019-05-18T20:56:01.687Z,18.32
2019-05-18T20:58:40.308Z,14.93
2019-05-18T21:01:04.634Z,14.20
2019-05-18T21:03:35.307Z,14.03
2019-05-18T21:06:05.877Z,14.00
2019-05-18T21:08:35.938Z,13.53
2019-05-18T21:11:06.825Z,14.13
2019-05-18T21:13:37.486Z,13.98
2019-05-18T21:16:08.046Z,14.10
2019-05-18T21:18:38.866Z,14.28
2019-05-18T21:21:09.441Z,13.45
2019-05-18T21:23:41.217Z,13.78
2019-05-18T21:26:11.857Z,13.70
2019-05-18T21:28:55.253Z,12.88
2019-05-18T21:31:14.787Z,12.60
2019-05-18T21:33:45.484Z,12.33
2019-05-18T21:36:16.244Z,11.80
2019-05-18T21:38:47.009Z,11.15
2019-05-18T21:41:17.681Z,11.43
2019-05-18T21:43:48.443Z,10.43
2019-05-18T21:46:19.001Z,9.65
2019-05-18T21:48:49.709Z,9.65
2019-05-18T21:51:20.317Z,9.63
2019-05-18T21:53:50.995Z,9.70
2019-05-18T21:56:21.537Z,10.78
2019-05-18T21:58:52.175Z,10.50
2019-05-18T22:01:22.821Z,10.13
2019-05-18T22:03:53.563Z,10.72
2019-05-18T22:06:24.099Z,11.05
2019-05-18T22:08:55.721Z,10.78
2019-05-18T22:11:27.207Z,11.78
2019-05-18T22:13:57.942Z,12.05
2019-05-18T22:16:28.526Z,12.25
2019-05-18T22:19:00.280Z,12.78
2019-05-18T22:21:30.801Z,12.43
2019-05-18T22:24:01.505Z,13.20
2019-05-18T22:26:32.227Z,13.15
2019-05-18T22:29:05.104Z,12.95
2019-05-18T22:31:35.816Z,13.65
2019-05-18T22:34:06.586Z,14.03
2019-05-18T22:36:38.225Z,14.03
2019-05-18T22:39:10.013Z,15.08
2019-05-18T22:41:40.649Z,16.35
2019-05-18T22:44:10.748Z,15.85
2019-05-18T22:46:41.403Z,16.82
2019-05-18T22:49:13.215Z,16.70
2019-05-18T22:51:43.933Z,17.70
2019-05-18T22:54:14.677Z,16.67
2019-05-18T22:56:45.543Z,16.67
2019-05-18T22:59:17.348Z,16.50
2019-05-18T23:01:47.888Z,16.32
2019-05-18T23:04:18.623Z,16.35
2019-05-18T23:06:50.154Z,16.52
2019-05-18T23:09:21.787Z,16.87
2019-05-18T23:11:52.537Z,18.23
2019-05-18T23:14:23.175Z,16.97
2019-05-18T23:16:53.711Z,25.62
2019-05-18T23:19:25.559Z,28.32
2019-05-18T23:21:56.091Z,19.60
2019-05-18T23:24:26.753Z,18.62
2019-05-18T23:26:58.301Z,17.70
2019-05-18T23:29:29.947Z,17.65
2019-05-18T23:32:00.656Z,16.97
2019-05-18T23:34:31.333Z,15.40
2019-05-18T23:37:01.974Z,17.70
2019-05-18T23:39:33.670Z,16.80
2019-05-18T23:42:04.225Z,17.45
2019-05-18T23:44:34.873Z,17.48
2019-05-18T23:47:04.840Z,17.35
2019-05-18T23:49:36.538Z,17.05
2019-05-18T23:52:07.079Z,17.80
2019-05-18T23:54:37.728Z,17.30
2019-05-18T23:57:07.696Z,32.45
2019-05-18T23:59:39.319Z,38.83
